sensor_id;sensor_type;location;lat;lon;timestamp;pressure;altitude;pressure_sealevel;temperature;humidity
51928;BME280;37953;52.806;18.270;2023-02-01T00:02:01;99435.19;;;4.39;100.00
51928;BME280;37953;52.806;18.270;2023-02-01T00:04:28;99424.91;;;4.39;100.00
51928;BME280;37953;52.806;18.270;2023-02-01T00:06:53;99419.78;;;4.39;100.00
51928;BME280;37953;52.806;18.270;2023-02-01T00:09:19;99421.50;;;4.38;100.00
51928;BME280;37953;52.806;18.270;2023-02-01T00:11:45;99426.63;;;4.40;100.00
51928;BME280;37953;52.806;18.270;2023-02-01T00:14:11;99418.03;;;4.38;100.00
51928;BME280;37953;52.806;18.270;2023-02-01T00:16:37;99434.31;;;4.37;100.00
51928;BME280;37953;52.806;18.270;2023-02-01T00:19:04;99427.44;;;4.36;100.00
51928;BME280;37953;52.806;18.270;2023-02-01T00:21:30;99424.84;;;4.36;100.00
51928;BME280;37953;52.806;18.270;2023-02-01T00:23:56;99417.16;;;4.34;100.00
51928;BME280;37953;52.806;18.270;2023-02-01T00:26:23;99421.41;;;4.32;100.00
51928;BME280;37953;52.806;18.270;2023-02-01T00:28:51;99419.69;;;4.31;100.00
51928;BME280;37953;52.806;18.270;2023-02-01T00:31:16;99429.97;;;4.31;100.00
51928;BME280;37953;52.806;18.270;2023-02-01T00:33:42;99421.38;;;4.31;100.00
51928;BME280;37953;52.806;18.270;2023-02-01T00:36:08;99433.34;;;4.27;100.00
51928;BME280;37953;52.806;18.270;2023-02-01T00:38:40;99435.88;;;4.24;100.00
51928;BME280;37953;52.806;18.270;2023-02-01T00:41:10;99438.50;;;4.25;100.00
51928;BME280;37953;52.806;18.270;2023-02-01T00:45:47;99436.78;;;4.26;100.00
51928;BME280;37953;52.806;18.270;2023-02-01T00:48:12;99429.91;;;4.26;100.00
51928;BME280;37953;52.806;18.270;2023-02-01T00:50:41;99447.94;;;4.28;100.00
51928;BME280;37953;52.806;18.270;2023-02-01T00:53:08;99440.22;;;4.28;100.00
51928;BME280;37953;52.806;18.270;2023-02-01T00:55:34;99436.75;;;4.27;100.00
51928;BME280;37953;52.806;18.270;2023-02-01T00:58:00;99437.66;;;4.28;100.00
51928;BME280;37953;52.806;18.270;2023-02-01T01:00:26;99442.78;;;4.28;100.00
51928;BME280;37953;52.806;18.270;2023-02-01T01:02:51;99445.34;;;4.26;100.00
51928;BME280;37953;52.806;18.270;2023-02-01T01:05:17;99445.34;;;4.26;100.00
51928;BME280;37953;52.806;18.270;2023-02-01T01:07:43;99436.75;;;4.27;100.00
51928;BME280;37953;52.806;18.270;2023-02-01T01:10:09;99432.50;;;4.28;100.00
51928;BME280;37953;52.806;18.270;2023-02-01T01:12:35;99431.66;;;4.29;100.00
51928;BME280;37953;52.806;18.270;2023-02-01T01:15:01;99429.06;;;4.29;100.00
51928;BME280;37953;52.806;18.270;2023-02-01T01:17:27;99424.81;;;4.31;100.00
51928;BME280;37953;52.806;18.270;2023-02-01T01:19:52;99429.97;;;4.33;100.00
51928;BME280;37953;52.806;18.270;2023-02-01T01:22:18;99424.00;;;4.32;100.00
51928;BME280;37953;52.806;18.270;2023-02-01T01:24:44;99424.88;;;4.34;100.00
51928;BME280;37953;52.806;18.270;2023-02-01T01:27:10;99427.44;;;4.36;100.00
51928;BME280;37953;52.806;18.270;2023-02-01T01:29:35;99415.41;;;4.33;100.00
51928;BME280;37953;52.806;18.270;2023-02-01T01:32:01;99437.72;;;4.34;100.00
51928;BME280;37953;52.806;18.270;2023-02-01T01:34:27;99424.88;;;4.34;100.00
51928;BME280;37953;52.806;18.270;2023-02-01T01:36:53;99414.56;;;4.33;100.00
51928;BME280;37953;52.806;18.270;2023-02-01T01:39:19;99417.97;;;4.33;100.00
51928;BME280;37953;52.806;18.270;2023-02-01T01:41:45;99421.41;;;4.34;100.00
51928;BME280;37953;52.806;18.270;2023-02-01T01:46:55;99421.44;;;4.35;100.00
51928;BME280;37953;52.806;18.270;2023-02-01T01:49:21;99422.28;;;4.36;100.00
51928;BME280;37953;52.806;18.270;2023-02-01T01:51:56;99413.72;;;4.35;100.00
51928;BME280;37953;52.806;18.270;2023-02-01T01:56:53;99411.16;;;4.35;100.00
51928;BME280;37953;52.806;18.270;2023-02-01T01:59:21;99422.28;;;4.34;100.00
51928;BME280;37953;52.806;18.270;2023-02-01T02:01:49;99424.88;;;4.34;100.00
51928;BME280;37953;52.806;18.270;2023-02-01T02:04:15;99428.28;;;4.35;100.00
51928;BME280;37953;52.806;18.270;2023-02-01T02:09:26;99431.72;;;4.35;100.00
51928;BME280;37953;52.806;18.270;2023-02-01T02:11:51;99430.00;;;4.36;100.00
51928;BME280;37953;52.806;18.270;2023-02-01T02:14:17;99420.59;;;4.35;100.00
51928;BME280;37953;52.806;18.270;2023-02-01T02:35:38;99426.63;;;4.40;100.00
51928;BME280;37953;52.806;18.270;2023-02-01T02:38:34;99432.63;;;4.39;100.00
51928;BME280;37953;52.806;18.270;2023-02-01T02:44:14;99430.91;;;4.39;100.00
51928;BME280;37953;52.806;18.270;2023-02-01T02:47:12;99433.47;;;4.39;100.00
51928;BME280;37953;52.806;18.270;2023-02-01T02:52:45;99460.88;;;4.34;100.00
51928;BME280;37953;52.806;18.270;2023-02-01T02:55:31;99459.13;;;4.33;100.00
51928;BME280;37953;52.806;18.270;2023-02-01T02:58:01;99465.13;;;4.32;100.00
51928;BME280;37953;52.806;18.270;2023-02-01T03:00:46;99459.09;;;4.32;100.00
51928;BME280;37953;52.806;18.270;2023-02-01T03:03:31;99459.09;;;4.32;100.00
51928;BME280;37953;52.806;18.270;2023-02-01T03:06:19;99469.41;;;4.33;100.00
51928;BME280;37953;52.806;18.270;2023-02-01T03:08:45;99460.88;;;4.34;100.00
51928;BME280;37953;52.806;18.270;2023-02-01T03:11:14;99465.16;;;4.35;100.00
51928;BME280;37953;52.806;18.270;2023-02-01T03:13:49;99472.03;;;4.36;100.00
51928;BME280;37953;52.806;18.270;2023-02-01T03:16:23;99468.56;;;4.36;100.00
51928;BME280;37953;52.806;18.270;2023-02-01T03:18:54;99481.44;;;4.36;100.00
51928;BME280;37953;52.806;18.270;2023-02-01T03:21:24;99478.84;;;4.36;100.00
51928;BME280;37953;52.806;18.270;2023-02-01T03:23:52;99467.75;;;4.37;100.00
51928;BME280;37953;52.806;18.270;2023-02-01T03:26:19;99464.31;;;4.38;100.00
51928;BME280;37953;52.806;18.270;2023-02-01T03:28:48;99460.06;;;4.38;100.00
51928;BME280;37953;52.806;18.270;2023-02-01T03:31:25;99461.75;;;4.39;100.00
51928;BME280;37953;52.806;18.270;2023-02-01T03:33:53;99456.63;;;4.39;100.00
51928;BME280;37953;52.806;18.270;2023-02-01T03:36:26;99452.34;;;4.40;100.00
51928;BME280;37953;52.806;18.270;2023-02-01T03:39:00;99454.06;;;4.39;100.00
51928;BME280;37953;52.806;18.270;2023-02-01T03:44:16;99457.53;;;4.43;100.00
51928;BME280;37953;52.806;18.270;2023-02-01T03:46:46;99461.81;;;4.42;100.00
51928;BME280;37953;52.806;18.270;2023-02-01T03:49:16;99460.97;;;4.43;100.00
51928;BME280;37953;52.806;18.270;2023-02-01T03:51:44;99470.38;;;4.44;100.00
51928;BME280;37953;52.806;18.270;2023-02-01T03:54:15;99470.38;;;4.44;100.00
51928;BME280;37953;52.806;18.270;2023-02-01T03:56:44;99466.09;;;4.43;100.00
51928;BME280;37953;52.806;18.270;2023-02-01T03:59:11;99459.25;;;4.44;100.00
51928;BME280;37953;52.806;18.270;2023-02-01T04:01:36;99460.09;;;4.44;100.00
51928;BME280;37953;52.806;18.270;2023-02-01T04:04:02;99466.13;;;4.46;100.00
51928;BME280;37953;52.806;18.270;2023-02-01T04:06:28;99458.41;;;4.46;100.00
51928;BME280;37953;52.806;18.270;2023-02-01T04:08:54;99460.13;;;4.46;100.00
51928;BME280;37953;52.806;18.270;2023-02-01T04:11:20;99462.69;;;4.46;100.00
51928;BME280;37953;52.806;18.270;2023-02-01T04:13:45;99460.97;;;4.46;100.00
51928;BME280;37953;52.806;18.270;2023-02-01T04:16:11;99449.00;;;4.47;100.00
51928;BME280;37953;52.806;18.270;2023-02-01T04:18:37;99451.56;;;4.47;100.00
51928;BME280;37953;52.806;18.270;2023-02-01T04:21:03;99453.25;;;4.46;100.00
51928;BME280;37953;52.806;18.270;2023-02-01T04:23:29;99461.88;;;4.47;100.00
51928;BME280;37953;52.806;18.270;2023-02-01T04:26:00;99452.41;;;4.46;100.00
51928;BME280;37953;52.806;18.270;2023-02-01T04:28:27;99450.69;;;4.46;100.00
51928;BME280;37953;52.806;18.270;2023-02-01T04:30:53;99448.13;;;4.46;100.00
51928;BME280;37953;52.806;18.270;2023-02-01T04:33:18;99449.00;;;4.47;100.00
51928;BME280;37953;52.806;18.270;2023-02-01T04:35:44;99450.72;;;4.48;100.00
51928;BME280;37953;52.806;18.270;2023-02-01T04:38:10;99452.47;;;4.49;100.00
51928;BME280;37953;52.806;18.270;2023-02-01T04:40:36;99449.88;;;4.49;100.00
51928;BME280;37953;52.806;18.270;2023-02-01T04:43:03;99462.75;;;4.49;100.00
51928;BME280;37953;52.806;18.270;2023-02-01T04:45:29;99454.13;;;4.48;100.00
51928;BME280;37953;52.806;18.270;2023-02-01T04:47:55;99454.13;;;4.48;100.00
51928;BME280;37953;52.806;18.270;2023-02-01T04:50:21;99446.44;;;4.48;100.00
51928;BME280;37953;52.806;18.270;2023-02-01T04:52:47;99442.97;;;4.46;100.00
51928;BME280;37953;52.806;18.270;2023-02-01T04:55:13;99445.53;;;4.46;100.00
51928;BME280;37953;52.806;18.270;2023-02-01T04:57:41;99436.09;;;4.44;100.00
51928;BME280;37953;52.806;18.270;2023-02-01T05:00:10;99433.53;;;4.42;100.00
51928;BME280;37953;52.806;18.270;2023-02-01T05:02:36;99418.97;;;4.43;100.00
51928;BME280;37953;52.806;18.270;2023-02-01T05:05:03;99432.66;;;4.42;100.00
51928;BME280;37953;52.806;18.270;2023-02-01T05:07:29;99430.94;;;4.41;100.00
51928;BME280;37953;52.806;18.270;2023-02-01T05:09:54;99432.66;;;4.40;100.00
51928;BME280;37953;52.806;18.270;2023-02-01T05:12:20;99428.34;;;4.39;100.00
51928;BME280;37953;52.806;18.270;2023-02-01T05:15:05;99429.19;;;4.38;100.00
51928;BME280;37953;52.806;18.270;2023-02-01T05:17:30;99432.63;;;4.39;100.00
51928;BME280;37953;52.806;18.270;2023-02-01T05:19:56;99429.19;;;4.40;100.00
51928;BME280;37953;52.806;18.270;2023-02-01T05:22:22;99429.22;;;4.41;100.00
51928;BME280;37953;52.806;18.270;2023-02-01T05:24:48;99439.53;;;4.43;100.00
51928;BME280;37953;52.806;18.270;2023-02-01T05:27:14;99430.97;;;4.42;100.00
51928;BME280;37953;52.806;18.270;2023-02-01T05:29:39;99430.09;;;4.43;100.00
51928;BME280;37953;52.806;18.270;2023-02-01T05:32:12;99420.66;;;4.44;100.00
51928;BME280;37953;52.806;18.270;2023-02-01T05:34:37;99420.69;;;4.45;100.00
51928;BME280;37953;52.806;18.270;2023-02-01T05:37:03;99418.13;;;4.45;100.00
51928;BME280;37953;52.806;18.270;2023-02-01T05:39:29;99419.84;;;4.46;100.00
51928;BME280;37953;52.806;18.270;2023-02-01T05:41:55;99406.97;;;4.46;100.00
51928;BME280;37953;52.806;18.270;2023-02-01T05:44:21;99405.28;;;4.47;100.00
51928;BME280;37953;52.806;18.270;2023-02-01T05:46:46;99404.41;;;4.46;100.00
51928;BME280;37953;52.806;18.270;2023-02-01T05:49:17;99408.69;;;4.46;100.00
51928;BME280;37953;52.806;18.270;2023-02-01T05:51:49;99410.41;;;4.45;100.00
51928;BME280;37953;52.806;18.270;2023-02-01T05:54:15;99404.41;;;4.45;100.00
51928;BME280;37953;52.806;18.270;2023-02-01T05:56:41;99411.25;;;4.44;100.00
51928;BME280;37953;52.806;18.270;2023-02-01T05:59:07;99425.84;;;4.45;100.00
51928;BME280;37953;52.806;18.270;2023-02-01T06:01:34;99417.25;;;4.46;100.00
51928;BME280;37953;52.806;18.270;2023-02-01T06:04:00;99418.16;;;4.47;100.00
51928;BME280;37953;52.806;18.270;2023-02-01T06:06:25;99410.41;;;4.48;100.00
51928;BME280;37953;52.806;18.270;2023-02-01T06:08:51;99414.69;;;4.46;100.00
51928;BME280;37953;52.806;18.270;2023-02-01T06:11:17;99431.00;;;4.48;100.00
51928;BME280;37953;52.806;18.270;2023-02-01T06:13:43;99421.59;;;4.49;100.00
51928;BME280;37953;52.806;18.270;2023-02-01T06:16:14;99427.59;;;4.49;100.00
51928;BME280;37953;52.806;18.270;2023-02-01T06:18:41;99421.59;;;4.51;100.00
51928;BME280;37953;52.806;18.270;2023-02-01T06:21:07;99434.44;;;4.51;100.00
51928;BME280;37953;52.806;18.270;2023-02-01T06:23:33;99426.72;;;4.51;100.00
51928;BME280;37953;52.806;18.270;2023-02-01T06:26:03;99438.75;;;4.52;100.00
51928;BME280;37953;52.806;18.270;2023-02-01T06:28:37;99441.34;;;4.52;100.00
51928;BME280;37953;52.806;18.270;2023-02-01T06:31:05;99447.34;;;4.52;100.00
51928;BME280;37953;52.806;18.270;2023-02-01T06:33:37;99447.34;;;4.52;100.00
51928;BME280;37953;52.806;18.270;2023-02-01T06:36:05;99460.19;;;4.52;100.00
51928;BME280;37953;52.806;18.270;2023-02-01T06:38:32;99463.63;;;4.53;100.00
51928;BME280;37953;52.806;18.270;2023-02-01T06:41:00;99446.47;;;4.52;100.00
51928;BME280;37953;52.806;18.270;2023-02-01T06:45:53;99451.63;;;4.55;100.00
51928;BME280;37953;52.806;18.270;2023-02-01T06:48:24;99448.22;;;4.54;100.00
51928;BME280;37953;52.806;18.270;2023-02-01T06:50:50;99455.97;;;4.56;100.00
51928;BME280;37953;52.806;18.270;2023-02-01T06:53:16;99432.81;;;4.56;100.00
51928;BME280;37953;52.806;18.270;2023-02-01T06:55:50;99444.81;;;4.55;100.00
51928;BME280;37953;52.806;18.270;2023-02-01T06:58:22;99438.78;;;4.55;100.00
51928;BME280;37953;52.806;18.270;2023-02-01T07:00:48;99443.06;;;4.54;100.00
51928;BME280;37953;52.806;18.270;2023-02-01T07:03:14;99444.78;;;4.54;100.00
51928;BME280;37953;52.806;18.270;2023-02-01T07:05:40;99429.34;;;4.54;100.00
51928;BME280;37953;52.806;18.270;2023-02-01T07:08:06;99433.63;;;4.52;100.00
51928;BME280;37953;52.806;18.270;2023-02-01T07:10:33;99436.19;;;4.52;100.00
51928;BME280;37953;52.806;18.270;2023-02-01T07:12:59;99436.16;;;4.50;100.00
51928;BME280;37953;52.806;18.270;2023-02-01T07:15:25;99439.59;;;4.51;100.00
51928;BME280;37953;52.806;18.270;2023-02-01T07:17:53;99442.16;;;4.51;100.00
51928;BME280;37953;52.806;18.270;2023-02-01T07:20:19;99433.59;;;4.50;100.00
51928;BME280;37953;52.806;18.270;2023-02-01T07:22:45;99430.16;;;4.49;100.00
51928;BME280;37953;52.806;18.270;2023-02-01T07:25:11;99427.59;;;4.49;100.00
51928;BME280;37953;52.806;18.270;2023-02-01T07:27:37;99437.84;;;4.48;100.00
51928;BME280;37953;52.806;18.270;2023-02-01T07:30:06;99424.16;;;4.47;100.00
51928;BME280;37953;52.806;18.270;2023-02-01T07:32:32;99430.13;;;4.48;100.00
51928;BME280;37953;52.806;18.270;2023-02-01T07:34:58;99437.84;;;4.48;100.00
51928;BME280;37953;52.806;18.270;2023-02-01T07:37:24;99430.13;;;4.48;100.00
51928;BME280;37953;52.806;18.270;2023-02-01T07:39:52;99434.47;;;4.49;100.00
51928;BME280;37953;52.806;18.270;2023-02-01T07:42:18;99419.03;;;4.49;100.00
51928;BME280;37953;52.806;18.270;2023-02-01T07:44:44;99426.75;;;4.49;100.00
51928;BME280;37953;52.806;18.270;2023-02-01T07:47:10;99423.31;;;4.50;100.00
51928;BME280;37953;52.806;18.270;2023-02-01T07:49:36;99431.00;;;4.48;100.00
51928;BME280;37953;52.806;18.270;2023-02-01T07:52:02;99433.59;;;4.50;100.00
51928;BME280;37953;52.806;18.270;2023-02-01T07:54:27;99445.59;;;4.49;100.00
51928;BME280;37953;52.806;18.270;2023-02-01T07:56:53;99465.31;;;4.49;100.00
51928;BME280;37953;52.806;18.270;2023-02-01T07:59:19;99421.59;;;4.49;100.00
51928;BME280;37953;52.806;18.270;2023-02-01T08:01:45;99429.31;;;4.49;100.00
51928;BME280;37953;52.806;18.270;2023-02-01T08:04:11;99426.75;;;4.49;100.00
51928;BME280;37953;52.806;18.270;2023-02-01T08:06:38;99411.31;;;4.49;100.00
51928;BME280;37953;52.806;18.270;2023-02-01T08:09:04;99419.03;;;4.49;100.00
51928;BME280;37953;52.806;18.270;2023-02-01T08:11:30;99414.75;;;4.49;100.00
51928;BME280;37953;52.806;18.270;2023-02-01T08:13:57;99415.59;;;4.50;100.00
51928;BME280;37953;52.806;18.270;2023-02-01T08:16:23;99422.44;;;4.49;100.00
51928;BME280;37953;52.806;18.270;2023-02-01T08:18:49;99432.75;;;4.49;100.00
51928;BME280;37953;52.806;18.270;2023-02-01T08:21:23;99437.88;;;4.49;100.00
51928;BME280;37953;52.806;18.270;2023-02-01T08:23:49;99435.34;;;4.51;100.00
51928;BME280;37953;52.806;18.270;2023-02-01T08:26:19;99430.19;;;4.53;100.00
51928;BME280;37953;52.806;18.270;2023-02-01T08:28:49;99437.94;;;4.54;100.00
51928;BME280;37953;52.806;18.270;2023-02-01T08:31:17;99445.69;;;4.57;100.00
51928;BME280;37953;52.806;18.270;2023-02-01T08:33:44;99453.41;;;4.59;100.00
51928;BME280;37953;52.806;18.270;2023-02-01T08:36:13;99467.13;;;4.61;100.00
51928;BME280;37953;52.806;18.270;2023-02-01T08:38:39;99451.72;;;4.62;100.00
51928;BME280;37953;52.806;18.270;2023-02-01T08:41:09;99461.19;;;4.65;100.00
51928;BME280;37953;52.806;18.270;2023-02-01T08:43:35;99465.50;;;4.67;100.00
51928;BME280;37953;52.806;18.270;2023-02-01T08:46:02;99449.25;;;4.70;100.00
51928;BME280;37953;52.806;18.270;2023-02-01T08:48:27;99450.97;;;4.71;100.00
51928;BME280;37953;52.806;18.270;2023-02-01T08:50:53;99457.84;;;4.74;100.00
51928;BME280;37953;52.806;18.270;2023-02-01T08:53:19;99468.16;;;4.75;100.00
51928;BME280;37953;52.806;18.270;2023-02-01T08:55:46;99464.75;;;4.78;100.00
51928;BME280;37953;52.806;18.270;2023-02-01T08:58:12;99459.59;;;4.78;100.00
51928;BME280;37953;52.806;18.270;2023-02-01T09:00:40;99457.88;;;4.78;100.00
51928;BME280;37953;52.806;18.270;2023-02-01T09:03:07;99456.19;;;4.79;100.00
51928;BME280;37953;52.806;18.270;2023-02-01T09:05:34;99469.06;;;4.82;100.00
51928;BME280;37953;52.806;18.270;2023-02-01T09:08:00;99475.94;;;4.81;100.00
51928;BME280;37953;52.806;18.270;2023-02-01T09:10:26;99469.91;;;4.79;100.00
51928;BME280;37953;52.806;18.270;2023-02-01T09:12:52;99469.91;;;4.79;100.00
51928;BME280;37953;52.806;18.270;2023-02-01T09:15:18;99483.63;;;4.80;100.00
51928;BME280;37953;52.806;18.270;2023-02-01T09:17:43;99479.34;;;4.79;100.00
51928;BME280;37953;52.806;18.270;2023-02-01T09:20:10;99476.75;;;4.80;100.00
51928;BME280;37953;52.806;18.270;2023-02-01T09:22:35;99483.63;;;4.80;100.00
51928;BME280;37953;52.806;18.270;2023-02-01T09:25:01;99478.47;;;4.78;100.00
51928;BME280;37953;52.806;18.270;2023-02-01T09:27:30;99475.00;;;4.76;100.00
51928;BME280;37953;52.806;18.270;2023-02-01T09:29:56;99473.28;;;4.74;100.00
51928;BME280;37953;52.806;18.270;2023-02-01T09:32:22;99475.84;;;4.72;100.00
51928;BME280;37953;52.806;18.270;2023-02-01T09:34:49;99475.81;;;4.69;100.00
51928;BME280;37953;52.806;18.270;2023-02-01T09:37:15;99474.09;;;4.68;100.00
51928;BME280;37953;52.806;18.270;2023-02-01T09:39:41;99472.34;;;4.67;100.00
51928;BME280;37953;52.806;18.270;2023-02-01T09:47:09;99462.91;;;4.67;100.00
51928;BME280;37953;52.806;18.270;2023-02-01T09:49:37;99473.22;;;4.69;100.00
51928;BME280;37953;52.806;18.270;2023-02-01T09:52:27;99475.84;;;4.72;100.00
51928;BME280;37953;52.806;18.270;2023-02-01T09:55:09;99461.28;;;4.74;100.00
51928;BME280;37953;52.806;18.270;2023-02-01T09:57:40;99462.16;;;4.78;100.00
51928;BME280;37953;52.806;18.270;2023-02-01T10:00:12;99466.47;;;4.79;100.00
51928;BME280;37953;52.806;18.270;2023-02-01T10:02:40;99458.75;;;4.80;100.00
51928;BME280;37953;52.806;18.270;2023-02-01T10:05:11;99460.53;;;4.83;100.00
51928;BME280;37953;52.806;18.270;2023-02-01T10:07:54;99455.38;;;4.84;100.00
51928;BME280;37953;52.806;18.270;2023-02-01T10:13:34;99454.56;;;4.88;100.00
51928;BME280;37953;52.806;18.270;2023-02-01T10:18:13;99444.31;;;4.92;100.00
51928;BME280;37953;52.806;18.270;2023-02-01T10:25:55;99440.03;;;4.97;100.00
51928;BME280;37953;52.806;18.270;2023-02-01T10:28:21;99433.19;;;4.99;100.00
51928;BME280;37953;52.806;18.270;2023-02-01T10:30:48;99430.63;;;4.99;100.00
51928;BME280;37953;52.806;18.270;2023-02-01T10:33:18;99424.66;;;5.00;100.00
51928;BME280;37953;52.806;18.270;2023-02-01T10:35:45;99423.78;;;5.01;100.00
51928;BME280;37953;52.806;18.270;2023-02-01T10:38:32;99420.38;;;5.03;100.00
51928;BME280;37953;52.806;18.270;2023-02-01T10:41:04;99413.53;;;5.07;100.00
51928;BME280;37953;52.806;18.270;2023-02-01T10:43:32;99419.59;;;5.10;100.00
51928;BME280;37953;52.806;18.270;2023-02-01T10:45:59;99417.88;;;5.14;100.00
51928;BME280;37953;52.806;18.270;2023-02-01T10:48:25;99409.31;;;5.18;100.00
51928;BME280;37953;52.806;18.270;2023-02-01T10:56:11;99412.00;;;5.32;100.00
51928;BME280;37953;52.806;18.270;2023-02-01T10:58:45;99409.47;;;5.38;100.00
51928;BME280;37953;52.806;18.270;2023-02-01T11:03:56;99405.22;;;5.45;100.00
51928;BME280;37953;52.806;18.270;2023-02-01T11:11:33;99414.75;;;5.55;100.00
51928;BME280;37953;52.806;18.270;2023-02-01T11:14:19;99419.91;;;5.58;100.00
51928;BME280;37953;52.806;18.270;2023-02-01T11:16:49;99417.31;;;5.58;100.00
51928;BME280;37953;52.806;18.270;2023-02-01T11:19:15;99419.06;;;5.59;100.00
51928;BME280;37953;52.806;18.270;2023-02-01T11:21:43;99413.91;;;5.59;100.00
51928;BME280;37953;52.806;18.270;2023-02-01T11:24:44;99406.19;;;5.59;100.00
51928;BME280;37953;52.806;18.270;2023-02-01T11:27:16;99416.47;;;5.59;100.00
51928;BME280;37953;52.806;18.270;2023-02-01T11:29:43;99412.16;;;5.58;100.00
51928;BME280;37953;52.806;18.270;2023-02-01T11:32:12;99411.34;;;5.59;100.00
51928;BME280;37953;52.806;18.270;2023-02-01T11:34:39;99407.88;;;5.59;100.00
51928;BME280;37953;52.806;18.270;2023-02-01T11:37:19;99411.34;;;5.59;100.00
51928;BME280;37953;52.806;18.270;2023-02-01T11:39:56;99407.88;;;5.60;100.00
51928;BME280;37953;52.806;18.270;2023-02-01T11:42:22;99400.19;;;5.62;100.00
51928;BME280;37953;52.806;18.270;2023-02-01T11:44:48;99398.47;;;5.64;100.00
51928;BME280;37953;52.806;18.270;2023-02-01T11:47:27;99395.03;;;5.65;100.00
51928;BME280;37953;52.806;18.270;2023-02-01T12:02:58;99402.78;;;5.66;100.00
51928;BME280;37953;52.806;18.270;2023-02-01T12:05:30;99399.34;;;5.66;100.00
51928;BME280;37953;52.806;18.270;2023-02-01T12:12:56;99398.44;;;5.62;100.00
51928;BME280;37953;52.806;18.270;2023-02-01T12:31:14;99388.97;;;5.55;100.00
51928;BME280;37953;52.806;18.270;2023-02-01T12:36:32;99401.84;;;5.55;100.00
51928;BME280;37953;52.806;18.270;2023-02-01T12:47:06;99405.28;;;5.56;100.00
51928;BME280;37953;52.806;18.270;2023-02-01T12:52:25;99389.81;;;5.54;100.00
51928;BME280;37953;52.806;18.270;2023-02-01T12:54:57;99386.38;;;5.54;100.00
51928;BME280;37953;52.806;18.270;2023-02-01T12:57:42;99402.72;;;5.53;100.00
51928;BME280;37953;52.806;18.270;2023-02-01T13:02:37;99393.25;;;5.48;100.00
51928;BME280;37953;52.806;18.270;2023-02-01T13:07:41;99399.22;;;5.47;100.00
51928;BME280;37953;52.806;18.270;2023-02-01T13:10:13;99389.78;;;5.45;100.00
51928;BME280;37953;52.806;18.270;2023-02-01T13:15:28;99399.19;;;5.43;100.00
51928;BME280;37953;52.806;18.270;2023-02-01T13:17:55;99389.75;;;5.42;100.00
51928;BME280;37953;52.806;18.270;2023-02-01T13:22:53;99398.31;;;5.39;100.00
51928;BME280;37953;52.806;18.270;2023-02-01T13:27:56;99400.06;;;5.40;100.00
51928;BME280;37953;52.806;18.270;2023-02-01T13:30:37;99400.91;;;5.41;100.00
51928;BME280;37953;52.806;18.270;2023-02-01T13:38:02;99406.06;;;5.41;100.00
51928;BME280;37953;52.806;18.270;2023-02-01T13:40:51;99403.47;;;5.39;100.00
51928;BME280;37953;52.806;18.270;2023-02-01T13:43:26;99411.22;;;5.41;100.00
51928;BME280;37953;52.806;18.270;2023-02-01T13:45:55;99411.19;;;5.39;100.00
51928;BME280;37953;52.806;18.270;2023-02-01T13:50:57;99410.34;;;5.40;100.00
51928;BME280;37953;52.806;18.270;2023-02-01T13:53:33;99410.34;;;5.42;100.00
51928;BME280;37953;52.806;18.270;2023-02-01T13:56:03;99413.81;;;5.42;100.00
51928;BME280;37953;52.806;18.270;2023-02-01T13:58:32;99411.22;;;5.44;100.00
51928;BME280;37953;52.806;18.270;2023-02-01T14:03:43;99404.34;;;5.43;100.00
51928;BME280;37953;52.806;18.270;2023-02-01T14:14:47;99399.19;;;5.43;100.00
51928;BME280;37953;52.806;18.270;2023-02-01T14:19:23;99408.66;;;5.42;100.00
51928;BME280;37953;52.806;18.270;2023-02-01T14:21:53;99404.34;;;5.43;100.00
51928;BME280;37953;52.806;18.270;2023-02-01T14:24:25;99404.34;;;5.43;100.00
51928;BME280;37953;52.806;18.270;2023-02-01T14:26:57;99404.38;;;5.44;100.00
51928;BME280;37953;52.806;18.270;2023-02-01T14:37:10;99422.38;;;5.46;100.00
51928;BME280;37953;52.806;18.270;2023-02-01T14:40:20;99411.22;;;5.44;100.00
51928;BME280;37953;52.806;18.270;2023-02-01T14:47:42;99412.09;;;5.44;100.00
51928;BME280;37953;52.806;18.270;2023-02-01T14:50:10;99417.25;;;5.44;100.00
51928;BME280;37953;52.806;18.270;2023-02-01T14:52:41;99413.78;;;5.44;100.00
51928;BME280;37953;52.806;18.270;2023-02-01T14:55:33;99416.38;;;5.44;100.00
51928;BME280;37953;52.806;18.270;2023-02-01T14:57:55;99414.69;;;5.44;100.00
51928;BME280;37953;52.806;18.270;2023-02-01T15:00:24;99412.09;;;5.43;100.00
51928;BME280;37953;52.806;18.270;2023-02-01T15:02:52;99410.34;;;5.40;100.00
51928;BME280;37953;52.806;18.270;2023-02-01T15:05:25;99420.66;;;5.40;100.00
51928;BME280;37953;52.806;18.270;2023-02-01T15:07:51;99414.63;;;5.38;100.00
51928;BME280;37953;52.806;18.270;2023-02-01T15:10:17;99416.34;;;5.38;100.00
51928;BME280;37953;52.806;18.270;2023-02-01T15:12:44;99416.34;;;5.38;100.00
51928;BME280;37953;52.806;18.270;2023-02-01T15:15:14;99424.06;;;5.38;100.00
51928;BME280;37953;52.806;18.270;2023-02-01T15:17:42;99419.78;;;5.38;100.00
51928;BME280;37953;52.806;18.270;2023-02-01T15:20:16;99418.94;;;5.38;100.00
51928;BME280;37953;52.806;18.270;2023-02-01T15:22:43;99418.91;;;5.39;100.00
51928;BME280;37953;52.806;18.270;2023-02-01T15:25:21;99424.94;;;5.40;100.00
51928;BME280;37953;52.806;18.270;2023-02-01T15:27:47;99422.38;;;5.40;100.00
51928;BME280;37953;52.806;18.270;2023-02-01T15:30:18;99426.66;;;5.41;100.00
51928;BME280;37953;52.806;18.270;2023-02-01T15:32:49;99421.50;;;5.41;100.00
51928;BME280;37953;52.806;18.270;2023-02-01T15:38:48;99424.94;;;5.41;100.00
51928;BME280;37953;52.806;18.270;2023-02-01T15:41:05;99429.25;;;5.42;100.00
51928;BME280;37953;52.806;18.270;2023-02-01T15:43:42;99424.09;;;5.42;100.00
51928;BME280;37953;52.806;18.270;2023-02-01T15:46:12;99422.38;;;5.41;100.00